sensor_id;sensor_type;location;lat;lon;timestamp;pressure;altitude;pressure_sealevel;temperature;humidity
47913;BME280;33676;51.006;17.180;2023-04-24T00:01:10;99170.57;;;12.15;91.40
47913;BME280;33676;51.006;17.180;2023-04-24T00:03:38;99170.58;;;12.15;91.55
47913;BME280;33676;51.006;17.180;2023-04-24T00:06:07;99165.18;;;12.14;91.82
47913;BME280;33676;51.006;17.180;2023-04-24T00:08:38;99161.58;;;12.14;91.89
47913;BME280;33676;51.006;17.180;2023-04-24T00:11:09;99160.88;;;12.14;91.97
47913;BME280;33676;51.006;17.180;2023-04-24T00:13:38;99164.30;;;12.15;92.13
47913;BME280;33676;51.006;17.180;2023-04-24T00:16:06;99161.90;;;12.16;92.18
47913;BME280;33676;51.006;17.180;2023-04-24T00:18:35;99156.62;;;12.16;92.42
47913;BME280;33676;51.006;17.180;2023-04-24T00:21:04;99151.86;;;12.16;92.65
47913;BME280;33676;51.006;17.180;2023-04-24T00:23:33;99149.10;;;12.17;92.63
47913;BME280;33676;51.006;17.180;2023-04-24T00:26:01;99143.75;;;12.18;92.75
47913;BME280;33676;51.006;17.180;2023-04-24T00:28:30;99141.63;;;12.20;92.87
47913;BME280;33676;51.006;17.180;2023-04-24T00:30:58;99137.83;;;12.21;93.07
47913;BME280;33676;51.006;17.180;2023-04-24T00:33:27;99135.51;;;12.23;93.20
47913;BME280;33676;51.006;17.180;2023-04-24T00:35:55;99132.46;;;12.26;93.32
47913;BME280;33676;51.006;17.180;2023-04-24T00:38:24;99131.25;;;12.29;93.38
47913;BME280;33676;51.006;17.180;2023-04-24T00:40:53;99126.30;;;12.31;93.43
47913;BME280;33676;51.006;17.180;2023-04-24T00:43:22;99125.20;;;12.34;93.53
47913;BME280;33676;51.006;17.180;2023-04-24T00:45:50;99125.58;;;12.37;93.63
47913;BME280;33676;51.006;17.180;2023-04-24T00:48:20;99121.31;;;12.39;93.64
47913;BME280;33676;51.006;17.180;2023-04-24T00:50:48;99116.56;;;12.43;93.75
47913;BME280;33676;51.006;17.180;2023-04-24T00:53:16;99116.89;;;12.44;93.62
47913;BME280;33676;51.006;17.180;2023-04-24T00:55:45;99118.21;;;12.45;93.72
47913;BME280;33676;51.006;17.180;2023-04-24T00:58:14;99119.14;;;12.46;93.68
47913;BME280;33676;51.006;17.180;2023-04-24T01:00:43;99118.46;;;12.48;93.76
47913;BME280;33676;51.006;17.180;2023-04-24T01:03:12;99113.06;;;12.49;93.77
47913;BME280;33676;51.006;17.180;2023-04-24T01:05:41;99113.71;;;12.49;93.69
47913;BME280;33676;51.006;17.180;2023-04-24T01:08:10;99110.87;;;12.49;93.78
47913;BME280;33676;51.006;17.180;2023-04-24T01:10:40;99113.23;;;12.50;93.82
47913;BME280;33676;51.006;17.180;2023-04-24T01:13:09;99109.33;;;12.51;93.84
47913;BME280;33676;51.006;17.180;2023-04-24T01:15:37;99107.81;;;12.52;93.75
47913;BME280;33676;51.006;17.180;2023-04-24T01:18:06;99104.47;;;12.54;93.94
47913;BME280;33676;51.006;17.180;2023-04-24T01:20:34;99106.84;;;12.56;94.03
47913;BME280;33676;51.006;17.180;2023-04-24T01:23:04;99101.35;;;12.58;94.02
47913;BME280;33676;51.006;17.180;2023-04-24T01:25:34;99104.79;;;12.59;94.03
47913;BME280;33676;51.006;17.180;2023-04-24T01:28:03;99104.02;;;12.58;93.94
47913;BME280;33676;51.006;17.180;2023-04-24T01:30:33;99109.77;;;12.58;94.03
47913;BME280;33676;51.006;17.180;2023-04-24T01:33:02;99110.52;;;12.58;94.00
47913;BME280;33676;51.006;17.180;2023-04-24T01:35:31;99105.00;;;12.57;93.91
47913;BME280;33676;51.006;17.180;2023-04-24T01:37:59;99102.53;;;12.55;93.90
47913;BME280;33676;51.006;17.180;2023-04-24T01:40:27;99102.57;;;12.55;93.91
47913;BME280;33676;51.006;17.180;2023-04-24T01:42:58;99101.38;;;12.55;94.01
47913;BME280;33676;51.006;17.180;2023-04-24T01:45:26;99099.34;;;12.54;93.96
47913;BME280;33676;51.006;17.180;2023-04-24T01:47:55;99097.17;;;12.53;93.99
47913;BME280;33676;51.006;17.180;2023-04-24T01:50:23;99097.89;;;12.53;94.06
47913;BME280;33676;51.006;17.180;2023-04-24T01:52:52;99092.27;;;12.53;94.05
47913;BME280;33676;51.006;17.180;2023-04-24T01:55:20;99093.52;;;12.53;94.20
47913;BME280;33676;51.006;17.180;2023-04-24T01:57:49;99094.02;;;12.53;94.18
47913;BME280;33676;51.006;17.180;2023-04-24T02:00:18;99095.00;;;12.53;94.45
47913;BME280;33676;51.006;17.180;2023-04-24T02:02:46;99091.98;;;12.56;94.53
47913;BME280;33676;51.006;17.180;2023-04-24T02:05:16;99090.70;;;12.58;94.74
47913;BME280;33676;51.006;17.180;2023-04-24T02:07:44;99091.07;;;12.59;94.53
47913;BME280;33676;51.006;17.180;2023-04-24T02:10:13;99085.42;;;12.60;94.53
47913;BME280;33676;51.006;17.180;2023-04-24T02:12:41;99079.56;;;12.59;94.51
47913;BME280;33676;51.006;17.180;2023-04-24T02:15:13;99078.93;;;12.56;94.35
47913;BME280;33676;51.006;17.180;2023-04-24T02:17:41;99077.36;;;12.55;94.40
47913;BME280;33676;51.006;17.180;2023-04-24T02:20:10;99076.92;;;12.54;94.65
47913;BME280;33676;51.006;17.180;2023-04-24T02:22:38;99077.74;;;12.53;94.64
47913;BME280;33676;51.006;17.180;2023-04-24T02:25:08;99077.55;;;12.51;94.66
47913;BME280;33676;51.006;17.180;2023-04-24T02:27:36;99075.11;;;12.51;94.72
47913;BME280;33676;51.006;17.180;2023-04-24T02:30:06;99075.28;;;12.53;94.93
47913;BME280;33676;51.006;17.180;2023-04-24T02:32:35;99069.17;;;12.54;95.15
47913;BME280;33676;51.006;17.180;2023-04-24T02:35:05;99066.81;;;12.56;95.20
47913;BME280;33676;51.006;17.180;2023-04-24T02:37:34;99065.89;;;12.58;95.15
47913;BME280;33676;51.006;17.180;2023-04-24T02:40:02;99060.60;;;12.59;95.11
47913;BME280;33676;51.006;17.180;2023-04-24T02:42:31;99055.28;;;12.60;95.09
47913;BME280;33676;51.006;17.180;2023-04-24T02:44:59;99052.36;;;12.61;95.20
47913;BME280;33676;51.006;17.180;2023-04-24T02:47:28;99047.16;;;12.62;95.24
47913;BME280;33676;51.006;17.180;2023-04-24T02:49:56;99044.17;;;12.64;95.34
47913;BME280;33676;51.006;17.180;2023-04-24T02:52:24;99043.29;;;12.64;95.35
47913;BME280;33676;51.006;17.180;2023-04-24T02:54:53;99040.30;;;12.63;95.21
47913;BME280;33676;51.006;17.180;2023-04-24T02:57:22;99041.12;;;12.61;95.42
47913;BME280;33676;51.006;17.180;2023-04-24T02:59:50;99042.04;;;12.63;95.58
47913;BME280;33676;51.006;17.180;2023-04-24T03:02:19;99037.34;;;12.62;95.53
47913;BME280;33676;51.006;17.180;2023-04-24T03:04:49;99032.27;;;12.62;95.49
47913;BME280;33676;51.006;17.180;2023-04-24T03:07:17;99031.29;;;12.61;95.53
47913;BME280;33676;51.006;17.180;2023-04-24T03:09:48;99026.15;;;12.62;95.71
47913;BME280;33676;51.006;17.180;2023-04-24T03:12:17;99023.06;;;12.61;95.71
47913;BME280;33676;51.006;17.180;2023-04-24T03:14:48;99025.66;;;12.59;95.76
47913;BME280;33676;51.006;17.180;2023-04-24T03:17:16;99027.08;;;12.59;95.86
47913;BME280;33676;51.006;17.180;2023-04-24T03:19:45;99025.56;;;12.59;95.84
47913;BME280;33676;51.006;17.180;2023-04-24T03:22:13;99025.03;;;12.59;96.01
47913;BME280;33676;51.006;17.180;2023-04-24T03:24:41;99027.56;;;12.59;96.03
47913;BME280;33676;51.006;17.180;2023-04-24T03:27:10;99026.32;;;12.60;96.25
47913;BME280;33676;51.006;17.180;2023-04-24T03:29:38;99027.86;;;12.60;96.10
47913;BME280;33676;51.006;17.180;2023-04-24T03:32:07;99026.95;;;12.61;96.10
47913;BME280;33676;51.006;17.180;2023-04-24T03:34:35;99024.77;;;12.62;95.96
47913;BME280;33676;51.006;17.180;2023-04-24T03:37:04;99024.88;;;12.60;95.97
47913;BME280;33676;51.006;17.180;2023-04-24T03:39:32;99025.34;;;12.61;95.96
47913;BME280;33676;51.006;17.180;2023-04-24T03:42:01;99022.21;;;12.61;95.88
47913;BME280;33676;51.006;17.180;2023-04-24T03:44:29;99025.54;;;12.61;95.93
47913;BME280;33676;51.006;17.180;2023-04-24T03:46:58;99027.86;;;12.62;96.06
47913;BME280;33676;51.006;17.180;2023-04-24T03:49:26;99032.50;;;12.63;96.10
47913;BME280;33676;51.006;17.180;2023-04-24T03:51:55;99036.45;;;12.64;95.98
47913;BME280;33676;51.006;17.180;2023-04-24T03:54:23;99041.58;;;12.65;95.97
47913;BME280;33676;51.006;17.180;2023-04-24T03:56:52;99052.60;;;12.67;96.08
47913;BME280;33676;51.006;17.180;2023-04-24T03:59:20;99058.19;;;12.69;96.09
47913;BME280;33676;51.006;17.180;2023-04-24T04:01:48;99067.99;;;12.72;96.14
47913;BME280;33676;51.006;17.180;2023-04-24T04:04:17;99072.95;;;12.73;96.15
47913;BME280;33676;51.006;17.180;2023-04-24T04:06:45;99076.34;;;12.75;96.10
47913;BME280;33676;51.006;17.180;2023-04-24T04:09:14;99071.73;;;12.75;95.97
47913;BME280;33676;51.006;17.180;2023-04-24T04:11:43;99078.41;;;12.73;95.87
47913;BME280;33676;51.006;17.180;2023-04-24T04:14:11;99076.41;;;12.72;95.69
47913;BME280;33676;51.006;17.180;2023-04-24T04:16:40;99068.02;;;12.72;95.85
47913;BME280;33676;51.006;17.180;2023-04-24T04:19:09;99066.41;;;12.72;95.78
47913;BME280;33676;51.006;17.180;2023-04-24T04:21:37;99064.27;;;12.73;95.78
47913;BME280;33676;51.006;17.180;2023-04-24T04:24:05;99062.96;;;12.74;95.68
47913;BME280;33676;51.006;17.180;2023-04-24T04:26:35;99058.45;;;12.75;95.81
47913;BME280;33676;51.006;17.180;2023-04-24T04:29:05;99054.55;;;12.77;95.93
47913;BME280;33676;51.006;17.180;2023-04-24T04:31:34;99052.74;;;12.78;95.80
47913;BME280;33676;51.006;17.180;2023-04-24T04:34:03;99052.68;;;12.81;95.80
47913;BME280;33676;51.006;17.180;2023-04-24T04:36:31;99053.05;;;12.82;95.69
47913;BME280;33676;51.006;17.180;2023-04-24T04:39:05;99054.50;;;12.85;95.85
47913;BME280;33676;51.006;17.180;2023-04-24T04:41:33;99051.41;;;12.89;95.79
47913;BME280;33676;51.006;17.180;2023-04-24T04:44:05;99048.13;;;12.94;95.87
47913;BME280;33676;51.006;17.180;2023-04-24T04:46:34;99053.27;;;13.00;95.78
47913;BME280;33676;51.006;17.180;2023-04-24T04:49:05;99059.67;;;13.07;95.76
47913;BME280;33676;51.006;17.180;2023-04-24T04:51:34;99059.84;;;13.14;95.64
47913;BME280;33676;51.006;17.180;2023-04-24T04:54:02;99059.14;;;13.22;95.50
47913;BME280;33676;51.006;17.180;2023-04-24T04:56:31;99060.95;;;13.30;95.51
47913;BME280;33676;51.006;17.180;2023-04-24T04:58:59;99061.89;;;13.37;95.37
47913;BME280;33676;51.006;17.180;2023-04-24T05:01:28;99060.80;;;13.46;95.22
47913;BME280;33676;51.006;17.180;2023-04-24T05:03:56;99063.52;;;13.54;95.11
47913;BME280;33676;51.006;17.180;2023-04-24T05:06:25;99065.15;;;13.62;94.98
47913;BME280;33676;51.006;17.180;2023-04-24T05:08:54;99064.66;;;13.71;94.88
47913;BME280;33676;51.006;17.180;2023-04-24T05:11:25;99065.86;;;13.79;94.89
47913;BME280;33676;51.006;17.180;2023-04-24T05:13:54;99065.45;;;13.85;94.56
47913;BME280;33676;51.006;17.180;2023-04-24T05:16:23;99067.64;;;13.91;94.50
47913;BME280;33676;51.006;17.180;2023-04-24T05:18:51;99063.96;;;13.96;94.46
47913;BME280;33676;51.006;17.180;2023-04-24T05:21:20;99064.58;;;13.98;94.21
47913;BME280;33676;51.006;17.180;2023-04-24T05:23:48;99065.35;;;14.02;94.08
47913;BME280;33676;51.006;17.180;2023-04-24T05:26:17;99064.15;;;14.06;93.75
47913;BME280;33676;51.006;17.180;2023-04-24T05:28:46;99063.86;;;14.09;93.60
47913;BME280;33676;51.006;17.180;2023-04-24T05:31:14;99062.69;;;14.13;93.37
47913;BME280;33676;51.006;17.180;2023-04-24T05:33:42;99061.21;;;14.17;93.16
47913;BME280;33676;51.006;17.180;2023-04-24T05:36:11;99061.92;;;14.21;92.94
47913;BME280;33676;51.006;17.180;2023-04-24T05:38:41;99068.06;;;14.26;92.78
47913;BME280;33676;51.006;17.180;2023-04-24T05:41:10;99064.27;;;14.32;92.88
47913;BME280;33676;51.006;17.180;2023-04-24T05:43:38;99064.75;;;14.39;92.56
47913;BME280;33676;51.006;17.180;2023-04-24T05:46:08;99063.38;;;14.46;92.41
47913;BME280;33676;51.006;17.180;2023-04-24T05:48:36;99063.61;;;14.55;92.33
47913;BME280;33676;51.006;17.180;2023-04-24T05:51:06;99064.39;;;14.65;92.12
47913;BME280;33676;51.006;17.180;2023-04-24T05:53:36;99063.29;;;14.78;92.34
47913;BME280;33676;51.006;17.180;2023-04-24T05:56:06;99066.45;;;14.93;92.70
47913;BME280;33676;51.006;17.180;2023-04-24T05:58:36;99067.16;;;15.06;92.50
47913;BME280;33676;51.006;17.180;2023-04-24T06:01:08;99066.90;;;15.19;92.35
47913;BME280;33676;51.006;17.180;2023-04-24T06:03:41;99064.64;;;15.30;92.08
47913;BME280;33676;51.006;17.180;2023-04-24T06:06:10;99065.19;;;15.38;91.95
47913;BME280;33676;51.006;17.180;2023-04-24T06:08:41;99066.08;;;15.46;91.48
47913;BME280;33676;51.006;17.180;2023-04-24T06:11:13;99070.22;;;15.51;90.67
47913;BME280;33676;51.006;17.180;2023-04-24T06:13:43;99073.52;;;15.56;90.20
47913;BME280;33676;51.006;17.180;2023-04-24T06:16:12;99071.67;;;15.57;89.74
47913;BME280;33676;51.006;17.180;2023-04-24T06:18:41;99074.92;;;15.59;89.60
47913;BME280;33676;51.006;17.180;2023-04-24T06:21:11;99074.17;;;15.58;89.22
47913;BME280;33676;51.006;17.180;2023-04-24T06:23:40;99073.59;;;15.57;88.89
47913;BME280;33676;51.006;17.180;2023-04-24T06:26:09;99075.30;;;15.58;88.60
47913;BME280;33676;51.006;17.180;2023-04-24T06:28:38;99075.40;;;15.58;88.29
47913;BME280;33676;51.006;17.180;2023-04-24T06:31:07;99077.25;;;15.57;88.09
47913;BME280;33676;51.006;17.180;2023-04-24T06:33:37;99078.27;;;15.58;88.10
47913;BME280;33676;51.006;17.180;2023-04-24T06:36:06;99072.98;;;15.56;88.12
47913;BME280;33676;51.006;17.180;2023-04-24T06:38:35;99073.14;;;15.56;87.90
47913;BME280;33676;51.006;17.180;2023-04-24T06:41:04;99070.81;;;15.56;88.03
47913;BME280;33676;51.006;17.180;2023-04-24T06:43:33;99070.52;;;15.59;87.88
47913;BME280;33676;51.006;17.180;2023-04-24T06:46:02;99065.83;;;15.61;87.53
47913;BME280;33676;51.006;17.180;2023-04-24T06:48:31;99072.13;;;15.62;87.26
47913;BME280;33676;51.006;17.180;2023-04-24T06:51:00;99072.42;;;15.62;87.16
47913;BME280;33676;51.006;17.180;2023-04-24T06:53:29;99070.05;;;15.67;87.23
47913;BME280;33676;51.006;17.180;2023-04-24T06:55:58;99069.63;;;15.74;86.95
47913;BME280;33676;51.006;17.180;2023-04-24T06:58:27;99070.14;;;15.78;87.07
47913;BME280;33676;51.006;17.180;2023-04-24T07:00:57;99070.59;;;15.87;87.20
47913;BME280;33676;51.006;17.180;2023-04-24T07:03:26;99072.10;;;15.99;87.01
47913;BME280;33676;51.006;17.180;2023-04-24T07:05:55;99075.52;;;16.08;86.70
47913;BME280;33676;51.006;17.180;2023-04-24T07:08:32;99074.83;;;16.17;86.50
47913;BME280;33676;51.006;17.180;2023-04-24T07:11:30;99074.73;;;16.29;86.15
47913;BME280;33676;51.006;17.180;2023-04-24T07:14:01;99072.56;;;16.41;85.90
47913;BME280;33676;51.006;17.180;2023-04-24T07:31:43;99062.60;;;17.72;84.20
47913;BME280;33676;51.006;17.180;2023-04-24T07:34:12;99063.19;;;17.81;83.73
47913;BME280;33676;51.006;17.180;2023-04-24T07:36:52;99061.95;;;17.91;83.46
47913;BME280;33676;51.006;17.180;2023-04-24T07:48:27;99067.92;;;18.10;81.68
47913;BME280;33676;51.006;17.180;2023-04-24T07:50:56;99066.94;;;18.02;81.25
47913;BME280;33676;51.006;17.180;2023-04-24T07:53:29;99069.45;;;17.92;80.93
47913;BME280;33676;51.006;17.180;2023-04-24T07:55:58;99072.13;;;17.76;80.74
47913;BME280;33676;51.006;17.180;2023-04-24T07:58:35;99071.56;;;17.63;80.73
47913;BME280;33676;51.006;17.180;2023-04-24T08:01:19;99074.84;;;17.48;80.81
47913;BME280;33676;51.006;17.180;2023-04-24T08:03:48;99072.77;;;17.31;80.73
47913;BME280;33676;51.006;17.180;2023-04-24T08:06:16;99077.65;;;17.19;80.93
47913;BME280;33676;51.006;17.180;2023-04-24T08:08:46;99078.59;;;17.07;80.99
47913;BME280;33676;51.006;17.180;2023-04-24T08:11:15;99081.27;;;16.97;81.31
47913;BME280;33676;51.006;17.180;2023-04-24T08:13:43;99082.00;;;16.88;81.82
47913;BME280;33676;51.006;17.180;2023-04-24T08:16:12;99076.14;;;16.81;82.06
47913;BME280;33676;51.006;17.180;2023-04-24T08:18:57;99080.23;;;16.75;82.69
47913;BME280;33676;51.006;17.180;2023-04-24T08:21:34;99079.31;;;16.74;83.36
47913;BME280;33676;51.006;17.180;2023-04-24T08:24:53;99077.48;;;16.82;83.63
47913;BME280;33676;51.006;17.180;2023-04-24T08:27:39;99081.72;;;16.97;84.26
47913;BME280;33676;51.006;17.180;2023-04-24T08:30:23;99084.48;;;17.12;84.58
47913;BME280;33676;51.006;17.180;2023-04-24T08:32:56;99083.21;;;17.26;84.66
47913;BME280;33676;51.006;17.180;2023-04-24T08:35:25;99084.37;;;17.42;84.79
47913;BME280;33676;51.006;17.180;2023-04-24T08:37:53;99089.97;;;17.61;84.41
47913;BME280;33676;51.006;17.180;2023-04-24T08:40:27;99085.73;;;17.80;84.32
47913;BME280;33676;51.006;17.180;2023-04-24T08:42:59;99084.34;;;17.98;84.13
47913;BME280;33676;51.006;17.180;2023-04-24T08:45:30;99084.02;;;18.16;84.10
47913;BME280;33676;51.006;17.180;2023-04-24T08:47:59;99086.61;;;18.27;83.13
47913;BME280;33676;51.006;17.180;2023-04-24T08:50:29;99085.64;;;18.27;82.52
47913;BME280;33676;51.006;17.180;2023-04-24T08:52:58;99088.45;;;18.25;81.26
47913;BME280;33676;51.006;17.180;2023-04-24T08:55:29;99087.77;;;18.26;81.50
47913;BME280;33676;51.006;17.180;2023-04-24T08:58:01;99090.91;;;18.36;80.97
47913;BME280;33676;51.006;17.180;2023-04-24T09:00:31;99093.15;;;18.46;81.06
47913;BME280;33676;51.006;17.180;2023-04-24T09:03:04;99090.65;;;18.62;81.12
47913;BME280;33676;51.006;17.180;2023-04-24T09:05:35;99093.01;;;18.78;80.88
47913;BME280;33676;51.006;17.180;2023-04-24T09:08:04;99099.02;;;18.93;80.78
47913;BME280;33676;51.006;17.180;2023-04-24T09:10:52;99094.10;;;19.13;80.26
47913;BME280;33676;51.006;17.180;2023-04-24T09:13:25;99092.86;;;19.34;79.98
47913;BME280;33676;51.006;17.180;2023-04-24T09:15:57;99097.45;;;19.50;79.69
47913;BME280;33676;51.006;17.180;2023-04-24T09:18:33;99094.77;;;19.61;79.40
47913;BME280;33676;51.006;17.180;2023-04-24T09:21:09;99091.45;;;19.74;79.46
47913;BME280;33676;51.006;17.180;2023-04-24T09:23:38;99089.70;;;19.93;79.48
47913;BME280;33676;51.006;17.180;2023-04-24T09:26:09;99090.52;;;20.05;78.21
47913;BME280;33676;51.006;17.180;2023-04-24T09:28:40;99086.19;;;20.05;76.73
47913;BME280;33676;51.006;17.180;2023-04-24T09:31:15;99084.14;;;20.05;76.05
47913;BME280;33676;51.006;17.180;2023-04-24T09:34:01;99077.41;;;20.07;75.58
47913;BME280;33676;51.006;17.180;2023-04-24T09:36:55;99077.08;;;20.12;75.29
47913;BME280;33676;51.006;17.180;2023-04-24T09:39:24;99074.43;;;20.27;75.29
47913;BME280;33676;51.006;17.180;2023-04-24T09:41:55;99070.54;;;20.48;75.82
47913;BME280;33676;51.006;17.180;2023-04-24T09:44:27;99072.89;;;20.76;74.80
47913;BME280;33676;51.006;17.180;2023-04-24T09:46:58;99074.48;;;21.01;74.21
47913;BME280;33676;51.006;17.180;2023-04-24T09:49:31;99066.27;;;21.25;73.64
47913;BME280;33676;51.006;17.180;2023-04-24T09:52:10;99063.65;;;21.38;72.92
47913;BME280;33676;51.006;17.180;2023-04-24T09:54:39;99058.32;;;21.52;72.77
47913;BME280;33676;51.006;17.180;2023-04-24T09:57:08;99057.41;;;21.76;73.00
47913;BME280;33676;51.006;17.180;2023-04-24T09:59:42;99060.89;;;22.00;72.97
47913;BME280;33676;51.006;17.180;2023-04-24T10:02:20;99061.37;;;22.02;71.33
47913;BME280;33676;51.006;17.180;2023-04-24T10:04:56;99059.81;;;21.86;70.41
47913;BME280;33676;51.006;17.180;2023-04-24T10:07:28;99060.88;;;21.67;70.28
47913;BME280;33676;51.006;17.180;2023-04-24T10:09:58;99060.61;;;21.48;69.95
47913;BME280;33676;51.006;17.180;2023-04-24T10:12:27;99061.39;;;21.27;70.02
47913;BME280;33676;51.006;17.180;2023-04-24T10:14:58;99060.08;;;21.02;69.74
47913;BME280;33676;51.006;17.180;2023-04-24T10:17:27;99054.72;;;20.77;69.82
47913;BME280;33676;51.006;17.180;2023-04-24T10:19:57;99050.02;;;20.58;69.74
47913;BME280;33676;51.006;17.180;2023-04-24T10:22:26;99048.88;;;20.48;70.04
47913;BME280;33676;51.006;17.180;2023-04-24T10:24:56;99052.86;;;20.56;70.60
47913;BME280;33676;51.006;17.180;2023-04-24T10:27:26;99059.95;;;20.69;70.55
47913;BME280;33676;51.006;17.180;2023-04-24T10:29:56;99067.45;;;20.90;70.95
47913;BME280;33676;51.006;17.180;2023-04-24T10:32:27;99072.64;;;21.11;70.46
47913;BME280;33676;51.006;17.180;2023-04-24T10:34:56;99069.31;;;21.30;70.32
47913;BME280;33676;51.006;17.180;2023-04-24T10:37:25;99072.59;;;21.62;69.89
47913;BME280;33676;51.006;17.180;2023-04-24T10:39:55;99070.27;;;21.73;69.31
47913;BME280;33676;51.006;17.180;2023-04-24T10:42:27;99069.06;;;21.58;68.58
47913;BME280;33676;51.006;17.180;2023-04-24T10:44:56;99070.59;;;21.30;68.03
47913;BME280;33676;51.006;17.180;2023-04-24T10:47:26;99066.43;;;21.08;67.99
47913;BME280;33676;51.006;17.180;2023-04-24T10:49:58;99067.32;;;20.91;67.98
47913;BME280;33676;51.006;17.180;2023-04-24T10:52:45;99064.73;;;20.86;68.17
47913;BME280;33676;51.006;17.180;2023-04-24T10:55:14;99067.05;;;20.89;68.38
47913;BME280;33676;51.006;17.180;2023-04-24T10:58:03;99066.22;;;21.03;68.30
47913;BME280;33676;51.006;17.180;2023-04-24T11:00:40;99061.13;;;21.22;68.54
47913;BME280;33676;51.006;17.180;2023-04-24T11:03:30;99059.16;;;21.71;69.28
47913;BME280;33676;51.006;17.180;2023-04-24T11:06:05;99058.34;;;22.01;68.85
47913;BME280;33676;51.006;17.180;2023-04-24T11:08:44;99054.30;;;22.33;69.01
47913;BME280;33676;51.006;17.180;2023-04-24T11:11:15;99057.92;;;22.81;68.86
47913;BME280;33676;51.006;17.180;2023-04-24T11:16:53;99051.13;;;24.03;68.68
47913;BME280;33676;51.006;17.180;2023-04-24T11:19:24;99051.17;;;24.44;67.74
47913;BME280;33676;51.006;17.180;2023-04-24T11:22:18;99045.66;;;24.71;66.25
47913;BME280;33676;51.006;17.180;2023-04-24T11:27:21;99056.20;;;25.09;65.84
47913;BME280;33676;51.006;17.180;2023-04-24T11:32:42;99051.15;;;25.46;66.08
47913;BME280;33676;51.006;17.180;2023-04-24T11:37:50;99054.90;;;25.94;65.32
47913;BME280;33676;51.006;17.180;2023-04-24T11:40:22;99058.73;;;25.72;64.22
47913;BME280;33676;51.006;17.180;2023-04-24T11:42:54;99064.55;;;25.41;63.51
47913;BME280;33676;51.006;17.180;2023-04-24T11:45:50;99063.95;;;25.17;63.71
47913;BME280;33676;51.006;17.180;2023-04-24T11:48:20;99063.93;;;25.00;63.00
47913;BME280;33676;51.006;17.180;2023-04-24T11:50:51;99064.08;;;24.64;62.48
47913;BME280;33676;51.006;17.180;2023-04-24T11:53:20;99062.28;;;24.31;62.53
47913;BME280;33676;51.006;17.180;2023-04-24T11:55:50;99063.34;;;23.97;62.35
47913;BME280;33676;51.006;17.180;2023-04-24T11:58:21;99065.24;;;23.68;63.00
47913;BME280;33676;51.006;17.180;2023-04-24T12:00:59;99065.08;;;23.36;63.08
47913;BME280;33676;51.006;17.180;2023-04-24T12:03:29;99061.57;;;23.02;63.03
47913;BME280;33676;51.006;17.180;2023-04-24T12:06:09;99063.12;;;22.69;63.06
47913;BME280;33676;51.006;17.180;2023-04-24T12:08:40;99060.92;;;22.39;62.93
47913;BME280;33676;51.006;17.180;2023-04-24T12:11:09;99061.23;;;22.19;63.38
47913;BME280;33676;51.006;17.180;2023-04-24T12:13:38;99059.75;;;22.06;63.59
47913;BME280;33676;51.006;17.180;2023-04-24T12:16:06;99054.50;;;21.98;63.77
47913;BME280;33676;51.006;17.180;2023-04-24T12:18:44;99053.43;;;21.90;64.02
47913;BME280;33676;51.006;17.180;2023-04-24T12:21:21;99054.92;;;21.83;64.03
47913;BME280;33676;51.006;17.180;2023-04-24T12:23:54;99052.05;;;21.73;64.32
47913;BME280;33676;51.006;17.180;2023-04-24T12:26:23;99054.35;;;21.63;64.14
47913;BME280;33676;51.006;17.180;2023-04-24T12:28:52;99052.88;;;21.50;64.02
47913;BME280;33676;51.006;17.180;2023-04-24T12:31:21;99053.33;;;21.37;64.42
47913;BME280;33676;51.006;17.180;2023-04-24T12:33:49;99052.38;;;21.13;64.01
47913;BME280;33676;51.006;17.180;2023-04-24T12:36:21;99048.01;;;20.87;64.14
47913;BME280;33676;51.006;17.180;2023-04-24T12:38:53;99047.86;;;20.59;64.14
47913;BME280;33676;51.006;17.180;2023-04-24T12:41:21;99047.67;;;20.36;64.50
47913;BME280;33676;51.006;17.180;2023-04-24T12:43:53;99046.55;;;20.18;64.82
47913;BME280;33676;51.006;17.180;2023-04-24T12:46:23;99044.32;;;20.01;65.25
47913;BME280;33676;51.006;17.180;2023-04-24T12:48:52;99044.23;;;19.87;65.67
47913;BME280;33676;51.006;17.180;2023-04-24T12:51:24;99045.48;;;19.69;65.99
47913;BME280;33676;51.006;17.180;2023-04-24T12:53:52;99049.30;;;19.48;66.26
47913;BME280;33676;51.006;17.180;2023-04-24T12:56:24;99043.22;;;19.26;66.64
47913;BME280;33676;51.006;17.180;2023-04-24T12:58:53;99042.95;;;19.08;67.31
47913;BME280;33676;51.006;17.180;2023-04-24T13:01:21;99042.98;;;18.94;67.78
47913;BME280;33676;51.006;17.180;2023-04-24T13:03:50;99041.00;;;18.78;68.32
47913;BME280;33676;51.006;17.180;2023-04-24T13:06:18;99043.02;;;18.62;68.55
47913;BME280;33676;51.006;17.180;2023-04-24T13:08:47;99040.46;;;18.43;68.44
47913;BME280;33676;51.006;17.180;2023-04-24T13:11:16;99032.27;;;18.25;68.54
47913;BME280;33676;51.006;17.180;2023-04-24T13:13:45;99038.16;;;18.09;68.95
47913;BME280;33676;51.006;17.180;2023-04-24T13:16:13;99037.25;;;17.99;69.22
47913;BME280;33676;51.006;17.180;2023-04-24T13:18:41;99032.38;;;17.86;69.32
47913;BME280;33676;51.006;17.180;2023-04-24T13:21:10;99029.23;;;17.77;69.65
47913;BME280;33676;51.006;17.180;2023-04-24T13:23:38;99027.47;;;17.70;70.09
47913;BME280;33676;51.006;17.180;2023-04-24T13:26:08;99026.89;;;17.62;70.22
47913;BME280;33676;51.006;17.180;2023-04-24T13:28:40;99027.52;;;17.59;70.57
47913;BME280;33676;51.006;17.180;2023-04-24T13:31:10;99022.08;;;17.56;70.70
47913;BME280;33676;51.006;17.180;2023-04-24T13:33:39;99021.54;;;17.53;70.91
47913;BME280;33676;51.006;17.180;2023-04-24T13:36:11;99021.80;;;17.51;71.37
47913;BME280;33676;51.006;17.180;2023-04-24T13:38:45;99025.23;;;17.50;71.82
47913;BME280;33676;51.006;17.180;2023-04-24T13:41:13;99025.73;;;17.48;72.14
47913;BME280;33676;51.006;17.180;2023-04-24T13:43:41;99018.34;;;17.45;72.23